الصفحة الرئيسية
METAR-TAF:

METAR-TAF

مطار :

والس, فرنسا

دائرة عرض: 13-14S, خط طول: 176-10W, ارتفاع: 23 متر

METAR: مفقودة

زمن: 05:38 (17:38 UTC)

توقعات

تاريخ ووقت الإصدار 38 دقيقة قبل الساعة 17:00UTC
التوقعات صالحة من14 الساعة 18 UTC إلى 15 الساعة 18 UTC
ريح 5 عقدة من الجنوب/الجنوب الشرقي
الرؤية 10 كم أو أكثر
غيوم متفرقة على ارتفاع 1500 قدم
غيوم مفككة على ارتفاع 2500 قدم
مؤقت
من 14 الساعة 18 UTC إلى 14 الساعة 24 UTC
الرؤية: 4000 متر
غيوم مفككة على ارتفاع 1200 قدم
غيوم متفرقة على ارتفاع 1800 قدم, مزن ركامية عمودية.
زخات من المطر
نظرية الاحتمالات 30% :
مؤقت
من 14 الساعة 20 UTC إلى 15 الساعة 03 UTC
الرؤية: 2000 متر
غيوم مفككة على ارتفاع 1000 قدم
غيوم متفرقة على ارتفاع 1500 قدم, مزنة ركامية.
عاصفة رعدية, مطر

TAF: NLWW 141700Z 1418/1518 15005KT 9999 SCT015 BKN025 TEMPO 1418/1424 4000 SHRA BKN012 SCT018TCU PROB30 TEMPO 1420/1503 2000 TSRA BKN010 SCT015CB

أرصاد الطقس والتوقعات من أكثر من 4000 مطار (تقارير الطقس للمطار METAR والتنبؤ بالطقس بالمطارTAF).

المحطات المتاحة هي النقط الصفراء والحمراء على الخريطة.

حرك المؤشر فوق النقطة لمعرفة اسم المحطة.

ثم انقر لمعرفة أرصاد وتوقعات الطقس.

لتغيير الخارطة: اضغط على الأزرار الخضراء مع رمز الصليب الأسود للتكبير. على الزر الأخضر مع شرطة للتصغير، أو على الأسهم الخضراء للخرائط المجاورة.


METAR-TAF: